San Juan Capistrano, CA (92675)

5:55 AM PDT on July 23, 2017 (GMT -0700)
MCAPSD | | Change Station
Active Advisory: Beach Hazard Statement

Elev 501 ft 33.56 °N, 117.55 °W | Updated 68 days ago

Mostly Cloudy
Mostly Cloudy
51.0 °F
Feels Like 51.0 °F
N
-
Wind Variable Wind from North

Today
High -- | Low -- °F
--% Chance of Precip.
Yesterday
High -- | Low -- °F
Precip. -- in
Pressure 29.86 in
Visibility 10.0 miles
Clouds Few 1300 ft
Dew Point 42.0 °F
Humidity 72%
Rainfall 0.00 in
Snow Depth Not available.
5:57 AM 7:56 PM
New Moon, 0% visible
METAR KSNA 231153Z AUTO 00000KT 10SM FEW013 21/18 A2986 RMK AO2 SLP111 T02060183 10211 20206 53000
Pressure 29.86 in
Visibility 10.0 miles
Clouds Few 1300 ft
Dew Point 42.0 °F
Humidity 72%
Rainfall 0.00 in
Snow Depth Not available.
5:57 AM 7:56 PM
New Moon, 0% visible
METAR KSNA 231153Z AUTO 00000KT 10SM FEW013 21/18 A2986 RMK AO2 SLP111 T02060183 10211 20206 53000

Get Your Daily Forecast Email!

Thanks for signing up!

Be on the lookout for a verification email in your inbox.

You'll start receiving severe weather alerts in your inbox..

×

10-Day Weather Forecast

Almanac

Astronomy

Jul. 23, 2017 Rise Set
Actual Time
Civil Twilight
Nautical Twilight
Astronomical Twilight
Moon
Length of Visible Light
Length of Day
Tomorrow will be .
, % of the Moon is Illuminated

Today's Extremes

State Highs State Lows

Community

WunderPhotos

Category 6

Welcome to Category 6. This is the collective home for Weather Underground's featured writeups by Dr. Jeff Masters (right), Bob Henson (left), Chris Burt, and other regular contributors.

Nearby

Air Quality

  Air Quality AQ Index Pollutant
Not available.

Snow Depth

Station Depth Elevation

Earthquake Activity

City Distance Mag. Time & Date
Minimum magnitude displayed is 2.5.

Coastal Water Temperatures

Place Temperature

Stations

Nearby Weather Stations

Station Location Temp. Windchill Dew Point Humidity Wind Precip. Elev Updated Type
                   

Watches & Warnings

Beach Hazard Statement
Issued: 3:28 AM PDT Jul. 23, 2017 – National Weather Service

... Beach hazards statement remains in effect through this
evening...

* tides... highest tide 6.9 to 7.1 feet at around 945 PM today.

* Timing... minor tidal overflow possible within an hour before
and after the time of highest tide.

* Impacts... minor flooding of low-lying coastal areas and beach
adjacent roads and parking lots. Possible impacted locations
include... but are not limited to... Sunset Beach... Oceanside...
Cardiff and La Jolla shores.

Precautionary/preparedness actions...

A beach hazards statement for minor tidal overflow means that
high astronomical tides possibly in combination with above normal
surf will likely produce minor flooding of low-lying areas along
the beach such as beach parking lots. Coastal officials should
take the necessary precautionary measures to safeguard their
beaches.




Http://www.Weather.Gov/sandiego